createdAt,value
2018-09-14T00:00:18.704Z,99.99
2018-09-14T00:01:18.703Z,99.99
2018-09-14T00:02:18.697Z,99.99
2018-09-14T00:03:18.690Z,99.99
2018-09-14T00:04:18.685Z,99.99
2018-09-14T00:05:18.674Z,99.99
2018-09-14T00:06:18.673Z,99.99
2018-09-14T00:07:18.667Z,99.99
2018-09-14T00:08:18.663Z,99.99
2018-09-14T00:09:18.651Z,99.99
2018-09-14T00:10:18.645Z,99.99
2018-09-14T00:11:18.637Z,99.99
2018-09-14T00:12:18.633Z,99.99
2018-09-14T00:13:18.631Z,99.99
2018-09-14T00:14:18.624Z,99.99
2018-09-14T00:15:18.619Z,99.99
2018-09-14T00:16:18.616Z,99.99
2018-09-14T00:17:18.601Z,99.99
2018-09-14T00:18:18.596Z,99.99
2018-09-14T00:19:18.590Z,99.99
2018-09-14T00:20:18.583Z,99.99
2018-09-14T00:21:18.581Z,99.99
2018-09-14T00:22:18.579Z,99.99
2018-09-14T00:23:18.564Z,99.99
2018-09-14T00:24:18.561Z,99.99
2018-09-14T00:25:18.558Z,99.99
2018-09-14T00:26:18.557Z,99.99
2018-09-14T00:27:18.546Z,99.99
2018-09-14T00:28:18.540Z,99.99
2018-09-14T00:29:18.532Z,99.99
2018-09-14T00:30:18.522Z,99.99
2018-09-14T00:31:18.516Z,99.99
2018-09-14T00:32:18.510Z,99.99
2018-09-14T00:33:18.509Z,99.99
2018-09-14T00:34:18.503Z,99.99
2018-09-14T00:35:18.496Z,99.99
2018-09-14T00:36:18.489Z,99.99
2018-09-14T00:37:18.481Z,99.99
2018-09-14T00:38:18.473Z,99.99
2018-09-14T00:39:18.471Z,99.99
2018-09-14T00:40:18.465Z,99.99
2018-09-14T00:41:18.454Z,99.99
2018-09-14T00:42:18.448Z,99.99
2018-09-14T00:43:18.443Z,99.99
2018-09-14T00:44:18.436Z,99.99
2018-09-14T00:45:18.448Z,99.99
2018-09-14T00:46:18.429Z,99.99
2018-09-14T00:47:18.423Z,99.99
2018-09-14T00:48:18.416Z,99.99
2018-09-14T00:49:18.406Z,99.99
2018-09-14T00:50:18.398Z,99.99
2018-09-14T00:51:18.392Z,99.99
2018-09-14T00:52:18.386Z,99.99
2018-09-14T00:53:18.384Z,99.99
2018-09-14T00:54:18.378Z,99.99
2018-09-14T00:55:18.375Z,99.99
2018-09-14T00:56:18.362Z,99.99
2018-09-14T00:57:18.358Z,99.99
2018-09-14T00:58:18.353Z,99.99
2018-09-14T00:59:18.348Z,99.99
2018-09-14T01:00:18.342Z,99.99
2018-09-14T01:01:18.330Z,99.99
2018-09-14T01:02:18.324Z,99.99
2018-09-14T01:03:18.320Z,99.99
2018-09-14T01:04:18.314Z,99.99
2018-09-14T01:05:18.309Z,99.99
2018-09-14T01:06:18.304Z,99.99
2018-09-14T01:07:18.296Z,99.99
2018-09-14T01:08:18.293Z,99.99
2018-09-14T01:09:18.281Z,99.99
2018-09-14T01:10:18.275Z,99.99
2018-09-14T01:11:18.271Z,99.99
2018-09-14T01:12:18.266Z,99.99
2018-09-14T01:13:18.253Z,99.99
2018-09-14T01:14:18.249Z,99.99
2018-09-14T01:15:18.251Z,99.66
2018-09-14T01:16:18.236Z,99.66
2018-09-14T01:17:18.273Z,99.66
2018-09-14T01:18:18.227Z,99.85
2018-09-14T01:19:18.222Z,99.99
2018-09-14T01:20:18.333Z,99.66
2018-09-14T01:21:18.206Z,99.27
2018-09-14T01:22:18.198Z,99.75
2018-09-14T01:23:18.191Z,99.80
2018-09-14T01:24:18.183Z,99.37
2018-09-14T01:25:18.181Z,99.99
2018-09-14T01:26:18.174Z,99.99
2018-09-14T01:27:18.163Z,99.89
2018-09-14T01:28:18.158Z,99.89
2018-09-14T01:29:18.158Z,99.99
2018-09-14T01:30:18.152Z,99.60
2018-09-14T01:31:18.142Z,99.60
2018-09-14T01:32:18.136Z,99.41
2018-09-14T01:33:18.125Z,99.80
2018-09-14T01:34:18.118Z,99.99
2018-09-14T01:35:18.112Z,99.99
2018-09-14T01:36:18.105Z,99.89
2018-09-14T01:37:18.103Z,99.99
2018-09-14T01:38:18.097Z,99.99
2018-09-14T01:39:18.090Z,99.99
2018-09-14T01:40:18.083Z,99.60
2018-09-14T01:41:18.072Z,99.99
2018-09-14T01:42:18.064Z,99.80
2018-09-14T01:43:18.065Z,99.80
2018-09-14T01:44:18.056Z,99.80
2018-09-14T01:45:18.046Z,99.99
2018-09-14T01:46:18.040Z,99.80
2018-09-14T01:47:18.033Z,99.70
2018-09-14T01:48:18.027Z,99.41
2018-09-14T01:49:18.024Z,99.04
2018-09-14T01:50:18.017Z,98.94
2018-09-14T01:51:18.012Z,98.75
2018-09-14T01:52:18.006Z,98.79
2018-09-14T01:53:17.999Z,99.46
2018-09-14T01:54:17.986Z,99.18
2018-09-14T01:55:17.981Z,99.75
2018-09-14T01:56:17.974Z,99.99
2018-09-14T01:57:17.973Z,99.99
2018-09-14T01:58:17.967Z,99.99
2018-09-14T01:59:17.954Z,99.99
2018-09-14T02:00:17.948Z,99.99
2018-09-14T02:01:17.947Z,99.99
2018-09-14T02:02:17.939Z,99.99
2018-09-14T02:03:17.969Z,99.99
2018-09-14T02:04:17.926Z,99.99
2018-09-14T02:05:17.914Z,99.99
2018-09-14T02:06:17.907Z,99.99
2018-09-14T02:07:17.901Z,99.99
2018-09-14T02:08:17.894Z,99.99
2018-09-14T02:09:17.893Z,99.99
2018-09-14T02:10:17.885Z,99.99
2018-09-14T02:11:17.878Z,99.99
2018-09-14T02:12:17.871Z,99.99
2018-09-14T02:13:17.860Z,99.99
2018-09-14T02:14:17.853Z,99.99
2018-09-14T02:15:17.851Z,99.99
2018-09-14T02:16:17.844Z,99.99
2018-09-14T02:17:17.834Z,99.99
2018-09-14T02:18:17.826Z,99.99
2018-09-14T02:19:17.820Z,99.99
2018-09-14T02:20:17.816Z,99.99
2018-09-14T02:21:17.810Z,99.99
2018-09-14T02:22:17.805Z,99.99
2018-09-14T02:23:17.797Z,99.99
2018-09-14T02:24:17.790Z,99.99
2018-09-14T02:25:17.779Z,99.99
2018-09-14T02:26:17.771Z,99.99
2018-09-14T02:27:17.765Z,99.99
2018-09-14T02:28:17.759Z,99.99
2018-09-14T02:29:17.758Z,99.99
2018-09-14T02:30:17.752Z,99.99
2018-09-14T02:31:17.740Z,99.99
2018-09-14T02:32:17.733Z,99.99
2018-09-14T02:33:17.728Z,99.99
2018-09-14T02:34:17.722Z,99.99
2018-09-14T02:35:17.716Z,99.99
2018-09-14T02:36:17.711Z,99.99
2018-09-14T02:37:17.696Z,99.99
2018-09-14T02:38:17.689Z,99.99
2018-09-14T02:39:17.683Z,99.99
2018-09-14T02:40:17.679Z,99.99
2018-09-14T02:41:17.672Z,99.99
2018-09-14T02:42:17.666Z,99.99
2018-09-14T02:43:17.660Z,99.65
2018-09-14T02:44:17.653Z,99.99
2018-09-14T02:45:17.640Z,99.99
2018-09-14T02:46:17.633Z,99.99
2018-09-14T02:47:17.631Z,99.94
2018-09-14T02:48:17.625Z,99.99
2018-09-14T02:49:17.613Z,99.99
2018-09-14T02:50:17.607Z,99.98
2018-09-14T02:51:17.598Z,99.99
2018-09-14T02:52:17.606Z,99.99
2018-09-14T02:53:17.590Z,99.99
2018-09-14T02:54:17.584Z,99.99
2018-09-14T02:55:17.575Z,99.99
2018-09-14T02:56:17.568Z,99.94
2018-09-14T02:57:17.556Z,99.99
2018-09-14T02:58:17.550Z,99.98
2018-09-14T02:59:17.542Z,99.99
2018-09-14T03:00:17.643Z,99.99
2018-09-14T03:01:17.535Z,99.99
2018-09-14T03:02:17.527Z,99.99
2018-09-14T03:03:17.516Z,99.99
2018-09-14T03:04:17.509Z,99.99
2018-09-14T03:05:17.506Z,99.99
2018-09-14T03:06:17.499Z,99.99
2018-09-14T03:07:17.490Z,99.99
2018-09-14T03:08:17.484Z,99.99
2018-09-14T03:09:17.472Z,99.99
2018-09-14T03:10:17.464Z,99.99
2018-09-14T03:11:17.459Z,99.99
2018-09-14T03:12:17.452Z,99.94
2018-09-14T03:13:17.448Z,99.99
2018-09-14T03:14:17.442Z,99.75
2018-09-14T03:15:17.440Z,99.99
2018-09-14T03:16:17.429Z,99.99
2018-09-14T03:17:17.416Z,99.99
2018-09-14T03:18:17.411Z,99.99
2018-09-14T03:19:17.406Z,99.99
2018-09-14T03:20:17.399Z,99.99
2018-09-14T03:21:17.389Z,99.99
2018-09-14T03:22:17.379Z,99.99
2018-09-14T03:23:17.374Z,99.99
2018-09-14T03:24:17.366Z,99.99
2018-09-14T03:25:17.362Z,99.79
2018-09-14T03:26:17.357Z,99.98
2018-09-14T03:27:17.349Z,99.99
2018-09-14T03:28:17.344Z,99.79
2018-09-14T03:29:17.331Z,99.79
2018-09-14T03:30:17.324Z,99.79
2018-09-14T03:31:17.316Z,99.79
2018-09-14T03:32:17.420Z,99.60
2018-09-14T03:33:17.307Z,99.98
2018-09-14T03:34:17.298Z,99.99
2018-09-14T03:35:17.287Z,99.99
2018-09-14T03:36:17.281Z,99.99
2018-09-14T03:37:17.278Z,99.99
2018-09-14T03:38:17.270Z,99.99
2018-09-14T03:39:17.350Z,99.99
2018-09-14T03:40:17.257Z,99.99
2018-09-14T03:41:17.245Z,99.99
2018-09-14T03:42:17.237Z,99.99
2018-09-14T03:43:17.230Z,99.99
2018-09-14T03:44:17.224Z,99.99
2018-09-14T03:45:17.220Z,99.99
2018-09-14T03:46:17.229Z,99.99
2018-09-14T03:47:17.206Z,99.99
2018-09-14T03:48:17.200Z,99.99
2018-09-14T03:49:17.185Z,99.99
2018-09-14T03:50:17.180Z,99.99
2018-09-14T03:51:17.176Z,99.99
2018-09-14T03:52:17.170Z,99.99
2018-09-14T03:53:17.157Z,99.99
2018-09-14T03:54:17.151Z,99.99
2018-09-14T03:55:17.144Z,99.99
2018-09-14T03:56:17.141Z,99.98
2018-09-14T03:57:17.141Z,99.99
2018-09-14T03:58:17.127Z,99.99
2018-09-14T03:59:17.120Z,99.99
2018-09-14T04:00:17.112Z,99.99
2018-09-14T04:01:17.103Z,99.89
2018-09-14T04:02:17.094Z,99.99
2018-09-14T04:03:17.088Z,99.99
2018-09-14T04:04:17.078Z,99.99
2018-09-14T04:05:17.075Z,99.99
2018-09-14T04:06:17.068Z,99.99
2018-09-14T04:07:17.056Z,99.99
2018-09-14T04:08:17.048Z,99.99
2018-09-14T04:09:17.046Z,99.99
2018-09-14T04:10:17.041Z,99.99
2018-09-14T04:11:17.033Z,99.99
2018-09-14T04:12:17.026Z,99.99
2018-09-14T04:13:17.022Z,99.99
2018-09-14T04:14:17.006Z,99.99
2018-09-14T04:15:16.999Z,99.99
2018-09-14T04:16:16.992Z,99.99
2018-09-14T04:17:16.989Z,99.99
2018-09-14T04:18:16.981Z,99.99
2018-09-14T04:19:16.972Z,99.99
2018-09-14T04:20:16.974Z,99.99
2018-09-14T04:21:16.957Z,99.99
2018-09-14T04:22:16.949Z,99.99
2018-09-14T04:23:16.944Z,99.99
2018-09-14T04:24:16.950Z,99.99
2018-09-14T04:25:16.925Z,99.99
2018-09-14T04:26:16.917Z,99.99
2018-09-14T04:27:16.911Z,99.99
2018-09-14T04:28:16.905Z,99.99
2018-09-14T04:29:16.901Z,99.99
2018-09-14T04:30:16.893Z,99.99
2018-09-14T04:31:16.885Z,99.99
2018-09-14T04:32:16.879Z,99.99
2018-09-14T04:33:16.874Z,99.99
2018-09-14T04:34:16.860Z,99.99
2018-09-14T04:35:16.853Z,99.98
2018-09-14T04:36:16.846Z,99.99
2018-09-14T04:37:16.843Z,99.99
2018-09-14T04:38:16.948Z,99.99
2018-09-14T04:39:16.825Z,99.99
2018-09-14T04:40:16.817Z,99.99
2018-09-14T04:41:16.814Z,99.99
2018-09-14T04:42:16.806Z,99.99
2018-09-14T04:43:16.798Z,99.99
2018-09-14T04:44:16.791Z,99.99
2018-09-14T04:45:16.779Z,99.99
2018-09-14T04:46:16.772Z,99.99
2018-09-14T04:47:16.767Z,99.99
2018-09-14T04:48:16.769Z,99.99
2018-09-14T04:49:16.754Z,99.99
2018-09-14T04:50:16.746Z,99.99
2018-09-14T04:51:16.762Z,99.99
2018-09-14T04:52:16.733Z,99.99
2018-09-14T04:53:16.725Z,99.99
2018-09-14T04:54:16.713Z,99.99
2018-09-14T04:55:16.711Z,99.99
2018-09-14T04:56:16.706Z,99.99
2018-09-14T04:57:16.711Z,99.99
2018-09-14T04:58:16.684Z,99.99
2018-09-14T04:59:16.678Z,99.99
2018-09-14T05:00:16.670Z,99.99
2018-09-14T05:01:16.667Z,99.99
2018-09-14T05:02:16.659Z,99.99
2018-09-14T05:03:16.731Z,99.99
2018-09-14T05:04:16.644Z,99.99
2018-09-14T05:05:16.633Z,99.99
2018-09-14T05:06:16.624Z,99.99
2018-09-14T05:07:16.619Z,99.99
2018-09-14T05:08:16.612Z,99.99
2018-09-14T05:09:16.608Z,99.99
2018-09-14T05:10:16.601Z,99.99
2018-09-14T05:11:16.590Z,99.99
2018-09-14T05:12:16.582Z,99.99
2018-09-14T05:13:16.578Z,99.99
2018-09-14T05:14:16.616Z,99.99
2018-09-14T05:15:16.564Z,99.99
2018-09-14T05:16:16.560Z,99.99
2018-09-14T05:17:16.543Z,99.99
2018-09-14T05:18:16.540Z,99.99
2018-09-14T05:19:16.530Z,99.99
2018-09-14T05:20:16.523Z,99.99
2018-09-14T05:21:16.520Z,99.99
2018-09-14T05:22:16.512Z,99.99
2018-09-14T05:23:16.505Z,99.99
2018-09-14T05:24:16.592Z,99.99
2018-09-14T05:25:16.485Z,99.99
2018-09-14T05:26:16.479Z,99.99
2018-09-14T05:27:16.476Z,99.99
2018-09-14T05:28:16.470Z,99.99
2018-09-14T05:29:16.455Z,99.99
2018-09-14T05:30:16.450Z,99.99
2018-09-14T05:31:16.441Z,99.89
2018-09-14T05:32:16.436Z,99.99
2018-09-14T05:33:16.432Z,99.84
2018-09-14T05:34:16.424Z,99.99
2018-09-14T05:35:16.427Z,99.99
2018-09-14T05:36:16.414Z,99.99
2018-09-14T05:37:16.398Z,99.99
2018-09-14T05:38:16.455Z,99.89
2018-09-14T05:39:16.387Z,99.99
2018-09-14T05:40:16.378Z,99.18
2018-09-14T05:41:16.375Z,98.42
2018-09-14T05:42:16.370Z,98.32
2018-09-14T05:43:16.358Z,97.56
2018-09-14T05:44:16.350Z,97.13
2018-09-14T05:45:16.348Z,96.37
2018-09-14T05:46:16.342Z,95.84
2018-09-14T05:47:16.340Z,96.32
2018-09-14T05:48:16.330Z,95.61
2018-09-14T05:49:16.318Z,94.65
2018-09-14T05:50:16.313Z,94.36
2018-09-14T05:51:16.309Z,93.36
2018-09-14T05:52:16.301Z,92.69
2018-09-14T05:53:16.300Z,92.74
2018-09-14T05:54:16.293Z,92.35
2018-09-14T05:55:16.287Z,91.20
2018-09-14T05:56:16.282Z,89.62
2018-09-14T05:57:16.270Z,89.05
2018-09-14T05:58:16.266Z,88.19
2018-09-14T05:59:16.265Z,87.95
2018-09-14T06:00:16.261Z,87.47
2018-09-14T06:01:16.249Z,85.94
2018-09-14T06:02:16.250Z,85.98
2018-09-14T06:03:16.290Z,85.31
2018-09-14T06:04:16.237Z,84.55
2018-09-14T06:05:16.237Z,84.78
2018-09-14T06:06:16.231Z,84.30
2018-09-14T06:07:16.227Z,84.01
2018-09-14T06:08:16.222Z,83.58
2018-09-14T06:09:16.212Z,83.58
2018-09-14T06:10:16.209Z,83.00
2018-09-14T06:11:16.204Z,82.08
2018-09-14T06:12:16.201Z,81.22
2018-09-14T06:13:16.201Z,81.07
2018-09-14T06:14:16.253Z,80.01
2018-09-14T06:15:16.190Z,79.38
2018-09-14T06:16:16.187Z,79.19
2018-09-14T06:17:16.188Z,78.70
2018-09-14T06:18:16.183Z,78.08
2018-09-14T06:19:16.183Z,77.53
2018-09-14T06:20:16.179Z,77.25
2018-09-14T06:21:16.171Z,76.86
2018-09-14T06:22:16.168Z,76.04
2018-09-14T06:23:16.166Z,75.46
2018-09-14T06:24:16.164Z,74.63
2018-09-14T06:25:16.165Z,74.19
2018-09-14T06:26:16.163Z,73.03
2018-09-14T06:27:16.160Z,72.59
2018-09-14T06:28:16.159Z,71.81
2018-09-14T06:29:16.151Z,70.70
2018-09-14T06:30:16.175Z,70.60
2018-09-14T06:31:16.153Z,70.06
2018-09-14T06:32:16.153Z,69.32
2018-09-14T06:33:16.147Z,68.84
2018-09-14T06:34:16.148Z,68.55
2018-09-14T06:35:16.147Z,67.71
2018-09-14T06:36:16.147Z,67.17
2018-09-14T06:37:16.150Z,67.27
2018-09-14T06:38:16.189Z,66.88
2018-09-14T06:39:16.148Z,66.72
2018-09-14T06:40:16.148Z,65.98
2018-09-14T06:41:16.143Z,65.69
2018-09-14T06:42:16.144Z,64.47
2018-09-14T06:43:16.145Z,63.73
2018-09-14T06:44:16.145Z,63.43
2018-09-14T06:45:16.164Z,63.46
2018-09-14T06:46:16.152Z,62.01
2018-09-14T06:47:16.148Z,62.01
2018-09-14T06:48:16.150Z,62.79
2018-09-14T06:49:16.156Z,62.98
2018-09-14T06:50:16.157Z,64.56
2018-09-14T06:51:16.157Z,66.05
2018-09-14T06:52:16.159Z,66.40
2018-09-14T06:53:16.192Z,66.75
2018-09-14T06:54:16.158Z,67.97
2018-09-14T06:55:16.161Z,68.90
2018-09-14T06:56:16.165Z,70.00
2018-09-14T06:57:16.171Z,70.38
2018-09-14T06:58:16.175Z,70.38
2018-09-14T06:59:16.177Z,70.28
2018-09-14T07:00:16.319Z,70.45
2018-09-14T07:01:16.177Z,69.78
2018-09-14T07:02:16.180Z,69.74
2018-09-14T07:03:16.188Z,70.03
2018-09-14T07:04:16.192Z,70.48
2018-09-14T07:05:16.190Z,70.86
2018-09-14T07:06:16.209Z,71.44
2018-09-14T07:07:16.197Z,71.48
2018-09-14T07:08:16.200Z,71.41
2018-09-14T07:09:16.207Z,71.83
2018-09-14T07:10:16.210Z,71.58
2018-09-14T07:11:16.216Z,71.03
2018-09-14T07:12:16.225Z,69.68
2018-09-14T07:13:16.276Z,69.84
2018-09-14T07:14:16.220Z,68.27
2018-09-14T07:15:16.223Z,67.05
2018-09-14T07:16:16.228Z,66.40
2018-09-14T07:17:16.235Z,64.59
2018-09-14T07:18:16.240Z,63.37
2018-09-14T07:19:16.241Z,62.13
2018-09-14T07:20:16.242Z,61.07
2018-09-14T07:21:16.252Z,60.61
2018-09-14T07:22:16.301Z,59.90
2018-09-14T07:23:16.259Z,58.86
2018-09-14T07:24:16.281Z,58.28
2018-09-14T07:25:16.263Z,56.98
2018-09-14T07:26:16.271Z,57.34
2018-09-14T07:27:16.277Z,58.39
2018-09-14T07:28:16.292Z,58.58
2018-09-14T07:29:16.368Z,58.74
2018-09-14T07:30:16.322Z,58.94
2018-09-14T07:31:16.321Z,60.01
2018-09-14T07:32:16.304Z,62.37
2018-09-14T07:33:16.304Z,63.69
2018-09-14T07:34:16.308Z,63.76
2018-09-14T07:35:16.320Z,64.43
2018-09-14T07:36:16.325Z,64.56
2018-09-14T07:37:16.325Z,63.72
2018-09-14T07:38:16.332Z,62.43
2018-09-14T07:39:16.337Z,61.98
2018-09-14T07:40:16.345Z,61.40
2018-09-14T07:41:16.352Z,61.43
2018-09-14T07:42:16.358Z,60.94
2018-09-14T07:43:16.365Z,61.01
2018-09-14T07:44:16.372Z,62.01
2018-09-14T07:45:16.371Z,61.39
2018-09-14T07:46:16.379Z,59.61
2018-09-14T07:47:16.387Z,58.25
2018-09-14T07:48:16.462Z,57.25
2018-09-14T07:49:16.402Z,57.37
2018-09-14T07:50:16.409Z,57.40
2018-09-14T07:51:16.411Z,55.98
2018-09-14T07:52:16.417Z,55.80
2018-09-14T07:53:16.427Z,55.29
2018-09-14T07:54:16.435Z,55.14
2018-09-14T07:55:16.447Z,56.59
2018-09-14T07:56:16.450Z,58.16
2018-09-14T07:57:16.452Z,58.09
2018-09-14T07:58:16.459Z,58.58
2018-09-14T07:59:16.467Z,57.15
2018-09-14T08:00:16.475Z,57.08
2018-09-14T08:01:16.553Z,56.92
2018-09-14T08:02:16.493Z,55.80
2018-09-14T08:03:16.502Z,54.38
2018-09-14T08:04:16.509Z,53.11
2018-09-14T08:05:16.511Z,52.65
2018-09-14T08:06:16.621Z,52.50
2018-09-14T08:07:16.531Z,51.63
2018-09-14T08:08:16.538Z,51.56
2018-09-14T08:09:16.544Z,50.80
2018-09-14T08:10:16.550Z,50.97
2018-09-14T08:11:16.560Z,50.99
2018-09-14T08:12:16.569Z,49.76
2018-09-14T08:13:16.657Z,49.07
2018-09-14T08:14:16.592Z,48.32
2018-09-14T08:15:16.598Z,47.22
2018-09-14T08:16:16.608Z,48.19
2018-09-14T08:17:16.611Z,49.05
2018-09-14T08:18:16.621Z,49.46
2018-09-14T08:19:16.630Z,50.14
2018-09-14T08:20:16.773Z,50.56
2018-09-14T08:21:16.672Z,51.14
2018-09-14T08:22:16.663Z,51.53
2018-09-14T08:23:16.668Z,51.26
2018-09-14T08:24:16.679Z,50.95
2018-09-14T08:25:16.691Z,50.70
2018-09-14T08:26:16.702Z,49.00
2018-09-14T08:27:16.779Z,46.88
2018-09-14T08:28:16.723Z,45.92
2018-09-14T08:29:16.727Z,45.45
2018-09-14T08:30:16.738Z,44.42
2018-09-14T08:31:16.748Z,44.24
2018-09-14T08:32:16.798Z,43.56
2018-09-14T08:33:16.774Z,43.57
2018-09-14T08:34:16.785Z,43.90
2018-09-14T08:35:16.795Z,45.42
2018-09-14T08:36:16.808Z,46.41
2018-09-14T08:37:16.811Z,46.78
2018-09-14T08:38:16.823Z,46.04
2018-09-14T08:39:16.841Z,44.12
2018-09-14T08:40:16.853Z,45.20
2018-09-14T08:41:16.855Z,46.23
2018-09-14T08:42:16.866Z,47.49
2018-09-14T08:43:16.879Z,48.88
2018-09-14T08:44:16.890Z,48.75
2018-09-14T08:45:16.906Z,48.19
2018-09-14T08:46:16.917Z,46.78
2018-09-14T08:47:16.929Z,44.96
2018-09-14T08:48:16.942Z,43.85
2018-09-14T08:49:16.949Z,42.82
2018-09-14T08:50:16.961Z,41.74
2018-09-14T08:51:16.973Z,41.09
2018-09-14T08:52:16.984Z,40.64
2018-09-14T08:53:16.998Z,40.01
2018-09-14T08:54:17.018Z,38.88
2018-09-14T08:55:17.019Z,38.92
2018-09-14T08:56:17.034Z,37.65
2018-09-14T08:57:17.051Z,36.77
2018-09-14T08:58:17.061Z,36.36
2018-09-14T08:59:17.072Z,36.20
2018-09-14T09:00:17.086Z,36.11
2018-09-14T09:01:17.094Z,35.36
2018-09-14T09:02:17.110Z,34.12
2018-09-14T09:03:17.121Z,33.25
2018-09-14T09:04:17.134Z,33.25
2018-09-14T09:05:17.151Z,32.67
2018-09-14T09:06:17.164Z,32.32
2018-09-14T09:07:17.232Z,32.82
2018-09-14T09:08:17.199Z,32.13
2018-09-14T09:09:17.313Z,32.04
2018-09-14T09:10:17.221Z,32.35
2018-09-14T09:11:17.292Z,32.04
2018-09-14T09:12:17.248Z,32.32
2018-09-14T09:13:17.256Z,32.44
2018-09-14T09:14:17.275Z,32.13
2018-09-14T09:15:17.285Z,32.03
2018-09-14T09:16:17.299Z,31.92
2018-09-14T09:17:17.319Z,31.97
2018-09-14T09:18:17.332Z,32.38
2018-09-14T09:19:17.381Z,32.77
2018-09-14T09:20:17.365Z,33.08
2018-09-14T09:21:17.416Z,34.13
2018-09-14T09:22:17.384Z,34.18
2018-09-14T09:23:17.406Z,33.41
2018-09-14T09:24:17.415Z,32.85
2018-09-14T09:25:17.434Z,31.86
2018-09-14T09:26:17.461Z,31.92
2018-09-14T09:27:17.458Z,32.42
2018-09-14T09:28:17.474Z,32.72
2018-09-14T09:29:17.502Z,33.04
2018-09-14T09:30:17.508Z,32.37
2018-09-14T09:31:17.521Z,31.99
2018-09-14T09:32:17.538Z,31.01
2018-09-14T09:33:17.547Z,31.02
2018-09-14T09:34:17.562Z,31.23
2018-09-14T09:35:17.580Z,30.55
2018-09-14T09:36:17.593Z,29.90
2018-09-14T09:37:17.612Z,29.07
2018-09-14T09:38:17.628Z,29.66
2018-09-14T09:39:17.644Z,29.95
2018-09-14T09:40:17.659Z,30.05
2018-09-14T09:41:17.669Z,29.62
2018-09-14T09:42:17.685Z,30.10
2018-09-14T09:43:17.799Z,29.97
2018-09-14T09:44:17.721Z,30.66
2018-09-14T09:45:17.731Z,31.27
2018-09-14T09:46:17.747Z,31.17
2018-09-14T09:47:17.763Z,31.27
2018-09-14T09:48:17.777Z,31.20
2018-09-14T09:49:17.796Z,30.63
2018-09-14T09:50:17.812Z,30.54
2018-09-14T09:51:17.930Z,29.75
2018-09-14T09:52:17.844Z,29.06
2018-09-14T09:53:17.854Z,28.67
2018-09-14T09:54:17.878Z,28.64
2018-09-14T09:55:17.886Z,29.63
2018-09-14T09:56:17.902Z,30.91
2018-09-14T09:57:17.922Z,31.60
2018-09-14T09:58:17.938Z,31.83
2018-09-14T09:59:17.948Z,31.75
2018-09-14T10:00:17.964Z,31.02
2018-09-14T10:01:17.984Z,32.46
2018-09-14T10:02:18.000Z,34.44
2018-09-14T10:03:18.015Z,34.44
2018-09-14T10:04:18.036Z,33.90
2018-09-14T10:05:18.042Z,35.13
2018-09-14T10:06:18.056Z,36.02
2018-09-14T10:07:18.074Z,38.10
2018-09-14T10:08:18.088Z,39.33
2018-09-14T10:09:18.105Z,40.04
2018-09-14T10:10:18.121Z,39.70
2018-09-14T10:11:18.138Z,38.76
2018-09-14T10:12:18.153Z,38.45
2018-09-14T10:13:18.164Z,37.09
2018-09-14T10:14:18.177Z,35.55
2018-09-14T10:15:18.196Z,34.00
2018-09-14T10:16:18.214Z,33.02
2018-09-14T10:17:18.220Z,32.41
2018-09-14T10:18:18.235Z,32.14
2018-09-14T10:19:18.251Z,32.17
2018-09-14T10:20:18.269Z,31.56
2018-09-14T10:21:18.402Z,31.66
2018-09-14T10:22:18.298Z,31.64
2018-09-14T10:23:18.313Z,32.33
2018-09-14T10:24:18.327Z,33.22
2018-09-14T10:25:18.335Z,33.34
2018-09-14T10:26:18.352Z,32.59
2018-09-14T10:27:18.365Z,31.90
2018-09-14T10:28:18.382Z,30.93
2018-09-14T10:29:18.398Z,30.26
2018-09-14T10:30:18.412Z,30.07
2018-09-14T10:31:18.422Z,30.29
2018-09-14T10:32:18.436Z,29.39
2018-09-14T10:33:18.458Z,29.10
2018-09-14T10:34:18.469Z,29.33
2018-09-14T10:35:18.482Z,28.64
2018-09-14T10:36:18.496Z,28.74
2018-09-14T10:37:18.507Z,28.62
2018-09-14T10:38:18.521Z,28.42
2018-09-14T10:39:18.535Z,28.30
2018-09-14T10:40:18.555Z,29.28
2018-09-14T10:41:18.569Z,29.27
2018-09-14T10:42:18.583Z,29.83
2018-09-14T10:43:18.598Z,30.34
2018-09-14T10:44:18.613Z,29.86
2018-09-14T10:45:18.685Z,29.78
2018-09-14T10:46:18.637Z,29.66
2018-09-14T10:47:18.657Z,29.17
2018-09-14T10:48:18.676Z,29.58
2018-09-14T10:49:18.680Z,30.10
2018-09-14T10:50:18.698Z,29.51
2018-09-14T10:51:18.711Z,28.41
2018-09-14T10:52:18.727Z,28.74
2018-09-14T10:53:18.742Z,28.06
2018-09-14T10:54:18.757Z,28.06
2018-09-14T10:55:18.826Z,27.25
2018-09-14T10:56:18.789Z,27.84
2018-09-14T10:57:18.797Z,27.59
2018-09-14T10:58:18.814Z,28.42
2018-09-14T10:59:18.831Z,29.28
2018-09-14T11:00:18.844Z,29.20
2018-09-14T11:01:18.863Z,29.41
2018-09-14T11:02:18.877Z,29.45
2018-09-14T11:03:18.889Z,30.70
2018-09-14T11:04:18.960Z,30.62
2018-09-14T11:05:18.922Z,32.17
2018-09-14T11:06:18.938Z,33.12
2018-09-14T11:07:18.951Z,34.38
2018-09-14T11:08:18.964Z,35.66
2018-09-14T11:09:18.973Z,35.97
2018-09-14T11:10:18.985Z,36.47
2018-09-14T11:11:18.998Z,35.79
2018-09-14T11:12:19.011Z,35.40
2018-09-14T11:13:19.028Z,35.40
2018-09-14T11:14:19.040Z,35.28
2018-09-14T11:15:19.053Z,35.63
2018-09-14T11:16:19.064Z,35.57
2018-09-14T11:17:19.074Z,33.95
2018-09-14T11:18:19.082Z,34.33
2018-09-14T11:19:19.097Z,34.71
2018-09-14T11:20:19.110Z,36.04
2018-09-14T11:21:19.121Z,37.10
2018-09-14T11:22:19.129Z,38.01
2018-09-14T11:23:19.139Z,38.60
2018-09-14T11:24:19.149Z,39.18
2018-09-14T11:25:19.244Z,39.82
2018-09-14T11:26:19.175Z,40.75
2018-09-14T11:27:19.185Z,42.02
2018-09-14T11:28:19.195Z,42.89
2018-09-14T11:29:19.199Z,43.27
2018-09-14T11:30:19.208Z,43.47
2018-09-14T11:31:19.217Z,43.88
2018-09-14T11:32:19.240Z,43.59
2018-09-14T11:33:19.237Z,43.59
2018-09-14T11:34:19.245Z,43.35
2018-09-14T11:35:19.249Z,43.82
2018-09-14T11:36:19.255Z,43.43
2018-09-14T11:37:19.317Z,44.23
2018-09-14T11:38:19.411Z,44.32
2018-09-14T11:39:19.281Z,43.93
2018-09-14T11:40:19.289Z,43.91
2018-09-14T11:41:19.289Z,44.23
2018-09-14T11:42:19.296Z,45.07
2018-09-14T11:43:19.303Z,44.49
2018-09-14T11:44:19.313Z,44.61
2018-09-14T11:45:19.444Z,45.39
2018-09-14T11:46:19.325Z,44.68
2018-09-14T11:47:19.329Z,45.10
2018-09-14T11:48:19.335Z,45.17
2018-09-14T11:49:19.337Z,44.78
2018-09-14T11:50:19.341Z,45.05
2018-09-14T11:51:19.351Z,44.98
2018-09-14T11:52:19.358Z,44.98
2018-09-14T11:53:19.359Z,45.07
2018-09-14T11:54:19.477Z,45.65
2018-09-14T11:55:19.371Z,45.56
2018-09-14T11:56:19.375Z,44.78
2018-09-14T11:57:19.382Z,45.05
2018-09-14T11:58:19.437Z,44.84
2018-09-14T11:59:19.392Z,44.93
2018-09-14T12:00:19.398Z,44.89
2018-09-14T12:01:19.420Z,46.34
2018-09-14T12:02:19.402Z,46.25
2018-09-14T12:03:19.406Z,47.33
2018-09-14T12:04:19.430Z,48.01
2018-09-14T12:05:19.420Z,48.01
2018-09-14T12:06:19.424Z,47.91
2018-09-14T12:07:19.425Z,46.94
2018-09-14T12:08:19.429Z,47.04
2018-09-14T12:09:19.437Z,47.94
2018-09-14T12:10:19.442Z,47.26
2018-09-14T12:11:19.446Z,47.26
2018-09-14T12:12:19.451Z,47.16
2018-09-14T12:13:19.449Z,47.47
2018-09-14T12:14:19.457Z,47.19
2018-09-14T12:15:19.457Z,46.67
2018-09-14T12:16:19.462Z,46.22
2018-09-14T12:17:19.471Z,46.24
2018-09-14T12:18:19.473Z,46.33
2018-09-14T12:19:19.482Z,45.95
2018-09-14T12:20:19.482Z,45.47
2018-09-14T12:21:19.480Z,45.39
2018-09-14T12:22:19.500Z,45.20
2018-09-14T12:23:19.494Z,44.68
2018-09-14T12:24:19.498Z,44.98
2018-09-14T12:25:19.496Z,44.96
2018-09-14T12:26:19.501Z,45.83
2018-09-14T12:27:19.505Z,46.14
2018-09-14T12:28:19.550Z,46.31
2018-09-14T12:29:19.516Z,46.22
2018-09-14T12:30:19.520Z,46.70
2018-09-14T12:31:19.524Z,47.67
2018-09-14T12:32:19.532Z,47.86
2018-09-14T12:33:19.530Z,47.86
2018-09-14T12:34:19.529Z,47.77
2018-09-14T12:35:19.535Z,47.09
2018-09-14T12:36:19.538Z,47.02
2018-09-14T12:37:19.546Z,46.62
2018-09-14T12:38:19.550Z,46.65
2018-09-14T12:39:19.549Z,46.36
2018-09-14T12:40:19.551Z,46.45
2018-09-14T12:41:19.560Z,46.26
2018-09-14T12:42:19.564Z,45.61
2018-09-14T12:43:19.568Z,44.90
2018-09-14T12:44:19.570Z,45.00
2018-09-14T12:45:19.568Z,45.78
2018-09-14T12:46:19.574Z,45.12
2018-09-14T12:47:19.578Z,45.41
2018-09-14T12:48:19.581Z,45.51
2018-09-14T12:49:19.588Z,45.62
2018-09-14T12:50:19.593Z,45.14
2018-09-14T12:51:19.597Z,44.75
2018-09-14T12:52:19.600Z,44.75